Time;durP1;ratioP1;P1;durP2;ratioP2;P2;SDS_P1;SDS_P2;PMS_P1;PMS_P2;Temp;Humidity;BMP_temperature;BMP_pressure;BME280_temperature;BME280_humidity;BME280_pressure;Samples;Min_cycle;Max_cycle;Signal;HPM_P1;HPM_P2
2022/10/23 00:02:08;;;;;;;68.15;58.30;;;;;;;7.77;100.00;101254.31;6175812;23;20122;-93
2022/10/23 00:04:36;;;;;;;90.38;69.85;;;;;;;7.66;100.00;101249.44;6191734;23;20091;-93
2022/10/23 00:07:03;;;;;;;66.45;59.70;;;;;;;7.53;100.00;101266.69;6193014;23;20017;-93
2022/10/23 00:09:31;;;;;;;68.55;61.47;;;;;;;7.45;100.00;101264.09;6191958;23;20045;-93
2022/10/23 00:11:58;;;;;;;69.70;62.35;;;;;;;7.57;100.00;101254.78;6191191;23;20028;-94
2022/10/23 00:14:26;;;;;;;74.55;62.38;;;;;;;7.56;100.00;101247.84;6194413;23;20020;-93
2022/10/23 00:16:54;;;;;;;70.90;58.67;;;;;;;7.63;100.00;101255.91;6191914;23;20092;-94
2022/10/23 00:19:24;;;;;;;73.32;61.17;;;;;;;7.47;100.00;101245.41;6194084;23;20024;-93
2022/10/23 00:21:52;;;;;;;72.28;62.15;;;;;;;7.51;100.00;101246.72;6193755;23;20017;-93
2022/10/23 00:24:20;;;;;;;80.50;66.35;;;;;;;7.47;100.00;101245.41;6193527;23;20028;-92
2022/10/23 00:26:50;;;;;;;78.22;66.10;;;;;;;7.46;100.00;101238.47;6193321;23;20046;-92
2022/10/23 00:29:17;;;;;;;81.75;66.18;;;;;;;7.38;100.00;101241.97;6193493;23;20104;-93
2022/10/23 00:31:44;;;;;;;85.15;67.00;;;;;;;7.36;100.00;101240.50;6193159;23;20076;-93
2022/10/23 00:34:13;;;;;;;94.93;68.45;;;;;;;7.40;100.00;101226.75;6193529;23;20017;-93
2022/10/23 00:36:40;;;;;;;73.95;64.70;;;;;;;7.38;100.00;101220.00;6193956;23;20072;-93
2022/10/23 00:39:07;;;;;;;72.57;63.95;;;;;;;7.31;100.00;101204.84;6193643;23;20021;-93
2022/10/23 00:41:34;;;;;;;75.95;66.78;;;;;;;7.35;100.00;101213.25;6195199;23;20033;-93
2022/10/23 00:44:09;;;;;;;75.15;65.13;;;;;;;7.43;100.00;101215.03;6193807;23;20075;-93
2022/10/23 00:46:38;;;;;;;75.32;63.92;;;;;;;7.17;100.00;101200.28;6193744;23;20021;-93
2022/10/23 00:49:07;;;;;;;79.03;71.28;;;;;;;7.53;100.00;101210.34;6193318;23;20021;-93
2022/10/23 00:51:49;;;;;;;73.88;66.70;;;;;;;7.93;100.00;101226.97;6197478;23;20017;-94
2022/10/23 00:54:20;;;;;;;73.40;67.25;;;;;;;8.09;100.00;101228.66;6224294;23;20032;-93
2022/10/23 00:56:50;;;;;;;70.30;63.50;;;;;;;7.99;100.00;101239.50;6225678;23;20036;-93
2022/10/23 00:59:17;;;;;;;75.20;67.20;;;;;;;7.78;100.00;101222.44;6226633;23;20407;-93
2022/10/23 01:01:44;;;;;;;128.73;90.18;;;;;;;7.73;100.00;101232.69;6224754;23;20021;-92
2022/10/23 01:04:11;;;;;;;95.43;77.25;;;;;;;7.72;100.00;101233.72;6228133;23;20020;-93
2022/10/23 01:06:47;;;;;;;91.93;73.47;;;;;;;7.77;100.00;101247.22;6227933;23;20020;-93
2022/10/23 01:09:21;;;;;;;72.97;65.40;;;;;;;7.66;100.00;101247.63;6230084;23;20072;-93
2022/10/23 01:11:53;;;;;;;70.32;62.95;;;;;;;7.41;100.00;101224.94;6228076;23;20095;-93
2022/10/23 01:14:28;;;;;;;73.32;65.25;;;;;;;7.46;100.00;101234.00;6227508;23;20020;-93
2022/10/23 01:17:04;;;;;;;75.63;67.45;;;;;;;7.48;100.00;101225.91;6228516;23;20020;-94
2022/10/23 01:19:44;;;;;;;77.50;60.67;;;;;;;7.32;100.00;101243.50;6227919;23;20025;-92
2022/10/23 01:22:35;;;;;;;70.15;62.55;;;;;;;7.28;100.00;101239.53;6227577;23;20088;-93
2022/10/23 01:25:16;;;;;;;79.60;70.70;;;;;;;7.70;100.00;101254.22;6227002;23;20016;-94
2022/10/23 01:27:52;;;;;;;77.70;69.22;;;;;;;7.79;100.00;101254.97;6228264;23;20017;-93
2022/10/23 01:30:20;;;;;;;70.45;63.28;;;;;;;7.63;100.00;101247.97;6228308;23;20071;-94
2022/10/23 01:32:52;;;;;;;72.80;64.75;;;;;;;7.55;100.00;101243.53;6228822;23;20024;-93
2022/10/23 01:35:23;;;;;;;73.72;64.63;;;;;;;7.56;100.00;101244.34;6227138;23;20024;-93
2022/10/23 01:37:55;;;;;;;75.88;64.82;;;;;;;7.55;100.00;101255.94;6227654;23;20469;-93
2022/10/23 01:40:26;;;;;;;73.00;65.57;;;;;;;7.58;100.00;101251.13;6227455;23;20168;-93
2022/10/23 01:42:58;;;;;;;76.88;69.25;;;;;;;7.58;100.00;101250.31;6228400;23;20041;-93
2022/10/23 01:45:32;;;;;;;76.72;68.22;;;;;;;7.43;100.00;101246.75;6227698;23;20020;-93
2022/10/23 01:48:02;;;;;;;76.60;68.57;;;;;;;7.48;100.00;101255.81;6228433;23;20013;-93
2022/10/23 01:50:32;;;;;;;69.00;61.88;;;;;;;7.52;100.00;101275.59;6227634;23;20459;-93
2022/10/23 01:52:59;;;;;;;66.55;60.22;;;;;;;7.40;100.00;101268.22;6228053;23;20016;-92
2022/10/23 01:55:27;;;;;;;70.50;63.33;;;;;;;7.62;100.00;101261.34;6227615;23;20088;-94
2022/10/23 01:58:01;;;;;;;67.65;61.03;;;;;;;7.60;100.00;101261.53;6227660;23;20471;-93
2022/10/23 02:00:28;;;;;;;67.95;60.95;;;;;;;7.60;100.00;101266.81;6220615;22;20099;-77
2022/10/23 02:02:57;;;;;;;65.45;59.15;;;;;;;7.72;100.00;101270.72;6212702;23;20031;-77
2022/10/23 02:05:27;;;;;;;68.80;61.92;;;;;;;7.65;100.00;101261.81;6215985;23;20082;-78
2022/10/23 02:07:54;;;;;;;65.05;58.42;;;;;;;7.62;100.00;101270.09;6216423;23;20024;-78
2022/10/23 02:10:23;;;;;;;63.20;57.22;;;;;;;7.49;100.00;101272.50;6216548;23;20066;-77
2022/10/23 02:12:57;;;;;;;68.82;62.78;;;;;;;7.83;100.00;101281.91;6216848;23;20086;-79
2022/10/23 02:15:30;;;;;;;64.50;58.45;;;;;;;7.98;100.00;101277.50;6217028;23;20029;-80
2022/10/23 02:18:06;;;;;;;73.90;67.90;;;;;;;8.11;100.00;101287.50;6215980;23;20389;-78
2022/10/23 02:20:39;;;;;;;69.55;63.42;;;;;;;8.18;100.00;101281.34;6216462;23;20052;-79
2022/10/23 02:23:16;;;;;;;68.90;62.90;;;;;;;8.25;100.00;101266.41;6216213;23;20021;-80
2022/10/23 02:25:48;;;;;;;73.47;66.18;;;;;;;8.17;100.00;101266.47;6216164;23;20020;-81
2022/10/23 02:28:19;;;;;;;66.75;60.05;;;;;;;7.85;100.00;101274.63;6216454;23;20021;-79
2022/10/23 02:30:50;;;;;;;70.38;63.25;;;;;;;8.19;100.00;101290.09;6216559;23;20020;-81
2022/10/23 02:33:18;;;;;;;74.22;66.75;;;;;;;8.19;100.00;101290.09;6216213;23;20020;-79
2022/10/23 02:35:48;;;;;;;65.75;60.03;;;;;;;8.10;100.00;101299.91;6215928;23;20020;-80
2022/10/23 02:38:30;;;;;;;69.60;63.58;;;;;;;8.16;100.00;101296.56;6216592;23;20025;-77
2022/10/23 02:41:01;;;;;;;62.28;56.92;;;;;;;8.37;100.00;101316.28;6216428;23;20094;-77
2022/10/23 02:43:33;;;;;;;61.70;56.35;;;;;;;8.52;100.00;101311.06;6216532;23;20041;-80
2022/10/23 02:46:11;;;;;;;58.80;53.67;;;;;;;8.66;100.00;101307.66;6216009;23;20472;-79
2022/10/23 02:48:45;;;;;;;62.42;57.10;;;;;;;8.23;100.00;101313.41;6216338;23;20437;-79
2022/10/23 02:51:17;;;;;;;65.40;60.20;;;;;;;8.44;100.00;101312.81;6216285;23;20087;-79
2022/10/23 02:53:52;;;;;;;61.78;56.42;;;;;;;8.57;100.00;101312.19;6216325;23;20032;-79
2022/10/23 02:56:28;;;;;;;62.90;57.42;;;;;;;8.60;100.00;101316.31;6215717;23;20449;-79
2022/10/23 02:59:00;;;;;;;61.95;56.47;;;;;;;8.56;100.00;101315.81;6215823;23;20464;-80
2022/10/23 03:01:39;;;;;;;60.37;54.83;;;;;;;8.76;100.00;101316.16;6215447;23;20025;-79
2022/10/23 03:04:07;;;;;;;65.15;59.95;;;;;;;8.85;100.00;101306.31;6216278;23;20082;-78
2022/10/23 03:06:34;;;;;;;67.80;62.28;;;;;;;8.92;100.00;101320.47;6215633;23;20024;-77
2022/10/23 03:09:08;;;;;;;64.97;59.42;;;;;;;8.89;100.00;101304.94;6215961;23;20063;-79
2022/10/23 03:11:35;;;;;;;64.53;59.13;;;;;;;8.85;100.00;101312.44;6215474;23;20098;-79
2022/10/23 03:14:02;;;;;;;64.90;59.08;;;;;;;8.91;100.00;101319.66;6215854;23;20021;-79
2022/10/23 03:16:30;;;;;;;66.47;61.03;;;;;;;9.22;100.00;101320.53;6215382;23;20028;-80
2022/10/23 03:18:57;;;;;;;65.28;59.97;;;;;;;9.10;100.00;101317.50;6215911;23;20090;-81
2022/10/23 03:21:24;;;;;;;66.72;61.28;;;;;;;9.04;100.00;101320.88;6215306;23;20476;-80
2022/10/23 03:23:51;;;;;;;67.70;61.97;;;;;;;9.17;100.00;101324.56;6215430;23;20094;-80
2022/10/23 03:26:18;;;;;;;63.50;58.00;;;;;;;9.18;100.00;101325.38;6215639;23;20086;-79
2022/10/23 03:28:44;;;;;;;62.40;57.38;;;;;;;9.11;100.00;101327.09;6215830;23;20025;-80
2022/10/23 03:31:11;;;;;;;64.88;59.17;;;;;;;9.13;100.00;101323.25;6215768;23;20017;-80
2022/10/23 03:33:39;;;;;;;66.65;60.97;;;;;;;9.48;100.00;101322.72;6215699;23;20082;-80
2022/10/23 03:36:08;;;;;;;63.70;58.60;;;;;;;9.54;100.00;101328.13;6215161;23;20094;-84
2022/10/23 03:38:35;;;;;;;63.85;58.40;;;;;;;10.48;100.00;101322.84;6215391;23;20028;-80
2022/10/23 03:41:02;;;;;;;57.58;52.78;;;;;;;10.38;100.00;101322.38;6215478;23;20649;-78
2022/10/23 03:43:29;;;;;;;54.45;49.78;;;;;;;11.15;100.00;101318.88;6215392;23;20031;-80
2022/10/23 03:45:56;;;;;;;50.83;46.85;;;;;;;12.23;100.00;101303.19;6215111;23;20082;-80
2022/10/23 03:48:23;;;;;;;50.22;46.22;;;;;;;12.83;100.00;101287.22;6215943;23;20032;-79
2022/10/23 03:50:52;;;;;;;48.45;44.33;;;;;;;13.04;100.00;101291.47;6215252;23;20100;-78
2022/10/23 03:53:19;;;;;;;48.10;44.25;;;;;;;13.10;100.00;101292.50;6215278;23;20438;-76
2022/10/23 03:55:45;;;;;;;48.80;44.72;;;;;;;13.41;100.00;101295.31;6215107;23;20036;-76
2022/10/23 03:58:12;;;;;;;48.63;44.38;;;;;;;13.60;100.00;101301.59;6215196;23;20434;-76
2022/10/23 04:00:39;;;;;;;49.80;46.15;;;;;;;13.82;100.00;101312.81;6215695;23;20020;-77
2022/10/23 04:03:06;;;;;;;48.28;44.72;;;;;;;14.16;100.00;101324.97;6215318;23;20418;-76
2022/10/23 04:05:33;;;;;;;45.25;42.05;;;;;;;14.10;100.00;101327.66;6215226;23;20381;-76
2022/10/23 04:08:01;;;;;;;48.72;44.97;;;;;;;14.14;100.00;101319.00;6214908;23;20569;-77
2022/10/23 04:10:28;;;;;;;46.72;43.30;;;;;;;14.30;100.00;101322.19;6215392;23;20024;-76
2022/10/23 04:12:54;;;;;;;46.10;42.67;;;;;;;14.43;100.00;101328.28;6215039;23;20035;-76
2022/10/23 04:15:21;;;;;;;48.60;44.47;;;;;;;14.34;100.00;101334.06;6214646;23;20020;-78
2022/10/23 04:17:48;;;;;;;46.78;43.40;;;;;;;14.25;100.00;101327.34;6215365;23;20035;-78
2022/10/23 04:20:15;;;;;;;47.05;43.60;;;;;;;14.35;100.00;101325.06;6215158;23;20036;-76
2022/10/23 04:22:42;;;;;;;47.47;43.65;;;;;;;14.53;100.00;101327.00;6214751;23;20042;-77
2022/10/23 04:25:10;;;;;;;47.08;43.58;;;;;;;14.68;100.00;101329.38;6214748;23;20021;-77
2022/10/23 04:27:37;;;;;;;47.17;43.85;;;;;;;14.68;100.00;101327.50;6215536;23;20079;-78
2022/10/23 04:30:04;;;;;;;47.80;43.60;;;;;;;14.68;100.00;101330.19;6212638;23;20021;-78
2022/10/23 04:32:31;;;;;;;44.78;41.35;;;;;;;14.62;100.00;101326.53;6213413;23;20028;-76
2022/10/23 04:34:58;;;;;;;46.25;42.65;;;;;;;14.56;100.00;101334.59;6213407;23;20024;-78
2022/10/23 04:37:25;;;;;;;45.83;42.30;;;;;;;14.56;100.00;101337.28;6214676;23;20020;-78
2022/10/23 04:39:52;;;;;;;44.38;41.13;;;;;;;14.55;100.00;101338.28;6215415;23;20090;-78
2022/10/23 04:42:20;;;;;;;46.97;43.15;;;;;;;14.52;100.00;101325.34;6214242;23;20025;-79
2022/10/23 04:44:47;;;;;;;46.20;42.42;;;;;;;14.56;100.00;101324.72;6214726;23;20086;-78
2022/10/23 04:47:14;;;;;;;47.58;44.03;;;;;;;14.76;100.00;101315.72;6213430;23;20385;-79
2022/10/23 04:49:41;;;;;;;46.08;42.15;;;;;;;14.73;100.00;101326.84;6214562;23;20032;-79
2022/10/23 04:52:07;;;;;;;47.47;43.28;;;;;;;14.67;100.00;101341.88;6214634;23;20393;-77
2022/10/23 04:54:38;;;;;;;46.08;42.58;;;;;;;14.68;100.00;101364.13;6214206;23;20024;-78
2022/10/23 04:57:04;;;;;;;44.55;41.03;;;;;;;14.55;100.00;101370.34;6214540;23;20068;-79
2022/10/23 04:59:33;;;;;;;46.00;42.53;;;;;;;14.45;100.00;101365.47;6214978;23;20024;-78
2022/10/23 05:02:00;;;;;;;47.15;43.15;;;;;;;14.34;100.00;101369.66;6214392;23;20025;-79
2022/10/23 05:04:27;;;;;;;47.67;43.90;;;;;;;14.41;100.00;101380.31;6188155;23;20437;-78
2022/10/23 05:06:54;;;;;;;47.03;43.25;;;;;;;14.22;100.00;101374.06;6213669;23;20094;-78
2022/10/23 05:09:21;;;;;;;46.55;43.10;;;;;;;14.16;100.00;101374.88;6214665;23;20086;-79
2022/10/23 05:11:48;;;;;;;48.00;44.45;;;;;;;14.19;100.00;101375.28;6213717;23;20098;-80
2022/10/23 05:14:15;;;;;;;44.53;41.03;;;;;;;14.52;100.00;101371.59;6214639;23;20095;-78
2022/10/23 05:16:48;;;;;;;44.72;41.58;;;;;;;14.45;100.00;101373.47;6214808;23;20078;-77
2022/10/23 05:19:23;;;;;;;47.10;43.63;;;;;;;14.40;100.00;101374.16;6211775;23;20035;-77
2022/10/23 05:21:54;;;;;;;49.45;45.28;;;;;;;14.29;100.00;101376.69;6212782;23;20025;-78
2022/10/23 05:24:21;;;;;;;45.95;42.53;;;;;;;14.38;100.00;101389.56;6213218;23;20025;-78
2022/10/23 05:26:50;;;;;;;48.15;44.15;;;;;;;14.44;100.00;101391.38;6213906;23;20087;-76
2022/10/23 05:29:17;;;;;;;47.13;43.28;;;;;;;14.43;100.00;101383.56;6214560;23;20020;-78
2022/10/23 05:31:46;;;;;;;46.47;42.72;;;;;;;14.45;100.00;101389.53;6214487;23;20402;-77
2022/10/23 05:34:16;;;;;;;45.42;41.50;;;;;;;14.55;100.00;101392.56;6213296;23;20028;-78
2022/10/23 05:36:44;;;;;;;48.70;44.47;;;;;;;14.67;100.00;101398.03;6213504;23;20330;-78
2022/10/23 05:39:10;;;;;;;45.25;41.42;;;;;;;14.79;100.00;101406.19;6214672;23;20389;-78
2022/10/23 05:41:37;;;;;;;47.65;43.53;;;;;;;14.79;100.00;101408.84;6214710;23;20017;-80
2022/10/23 05:44:04;;;;;;;46.83;43.00;;;;;;;14.81;100.00;101420.97;6212995;23;20428;-77
2022/10/23 05:46:31;;;;;;;43.95;40.90;;;;;;;14.83;100.00;101420.78;6216221;23;20094;-77
2022/10/23 05:48:59;;;;;;;47.85;44.10;;;;;;;14.85;100.00;101426.72;6216839;23;20102;-78
2022/10/23 05:51:26;;;;;;;47.78;44.08;;;;;;;14.87;100.00;101428.13;6217182;23;20028;-77
2022/10/23 05:53:55;;;;;;;46.63;43.42;;;;;;;14.89;100.00;101436.78;6216182;23;20025;-77
2022/10/23 05:56:22;;;;;;;46.38;42.75;;;;;;;14.92;100.00;101438.19;6216173;23;20090;-77
2022/10/23 05:58:49;;;;;;;47.13;43.60;;;;;;;15.01;100.00;101431.53;6215982;23;20017;-82
2022/10/23 06:01:17;;;;;;;45.83;42.55;;;;;;;15.02;100.00;101445.72;6215242;23;20462;-79
2022/10/23 06:03:44;;;;;;;46.83;43.28;;;;;;;15.03;100.00;101458.06;6215595;23;20090;-79
2022/10/23 06:06:12;;;;;;;47.63;43.97;;;;;;;15.01;100.00;101466.31;6215997;23;20031;-79
2022/10/23 06:08:39;;;;;;;47.75;43.97;;;;;;;15.07;100.00;101467.31;6216910;23;20024;-76
2022/10/23 06:11:07;;;;;;;46.20;42.47;;;;;;;15.11;100.00;101477.34;6215526;23;20453;-77
2022/10/23 06:13:34;;;;;;;48.67;44.83;;;;;;;15.21;100.00;101490.22;6216410;23;20091;-75
2022/10/23 06:16:09;;;;;;;48.92;45.22;;;;;;;15.10;100.00;101490.97;6215510;23;20103;-76
2022/10/23 06:18:36;;;;;;;46.15;42.85;;;;;;;15.09;100.00;101489.28;6214761;23;20100;-76
2022/10/23 06:21:03;;;;;;;47.20;43.72;;;;;;;15.12;100.00;101486.19;6215786;23;20021;-77
2022/10/23 06:23:32;;;;;;;49.50;45.30;;;;;;;15.50;100.00;101496.78;6215434;23;20020;-79
2022/10/23 06:25:59;;;;;;;47.20;43.75;;;;;;;15.55;100.00;101506.84;6216522;23;20086;-77
2022/10/23 06:28:26;;;;;;;46.17;42.78;;;;;;;15.68;100.00;101520.16;6216262;23;20098;-77
2022/10/23 06:30:53;;;;;;;46.80;42.95;;;;;;;15.76;100.00;101521.72;6216468;23;20136;-79
2022/10/23 06:33:20;;;;;;;46.85;43.20;;;;;;;15.67;100.00;101518.50;6216659;23;20099;-78
2022/10/23 06:35:47;;;;;;;48.65;45.08;;;;;;;15.63;100.00;101511.91;6215989;23;20106;-79
2022/10/23 06:38:14;;;;;;;46.33;42.88;;;;;;;15.85;100.00;101527.59;6216052;23;20024;-80
2022/10/23 06:40:44;;;;;;;48.78;44.92;;;;;;;15.84;100.00;101526.78;6216368;23;20017;-77
2022/10/23 06:43:11;;;;;;;47.90;44.50;;;;;;;16.06;100.00;101529.84;6216355;23;20050;-77
2022/10/23 06:45:38;;;;;;;45.70;41.92;;;;;;;16.01;100.00;101527.03;6215603;23;20024;-78
2022/10/23 06:48:06;;;;;;;44.85;41.40;;;;;;;16.19;100.00;101529.72;6215930;23;20078;-80
2022/10/23 06:50:32;;;;;;;46.15;42.10;;;;;;;16.25;100.00;101533.38;6216129;23;20086;-79
2022/10/23 06:52:59;;;;;;;43.80;41.20;;;;;;;16.13;100.00;101538.66;6216257;23;20400;-81
2022/10/23 06:55:26;;;;;;;44.15;41.22;;;;;;;16.19;100.00;101537.78;6215279;23;20102;-79
2022/10/23 06:57:55;;;;;;;44.85;41.35;;;;;;;16.55;100.00;101541.47;6214538;23;20319;-80
2022/10/23 07:00:21;;;;;;;53.25;49.78;;;;;;;16.59;100.00;101550.69;6215574;23;20532;-80
2022/10/23 07:02:48;;;;;;;52.72;49.20;;;;;;;16.55;100.00;101551.38;6216360;23;20118;-79
2022/10/23 07:05:15;;;;;;;52.90;49.35;;;;;;;16.63;100.00;101546.50;6214254;23;20020;-81
2022/10/23 07:07:42;;;;;;;41.83;39.00;;;;;;;16.17;100.00;101539.03;6214463;23;20042;-77
2022/10/23 07:10:09;;;;;;;44.03;40.88;;;;;;;16.92;100.00;101544.94;6212741;23;20095;-77
2022/10/23 07:12:36;;;;;;;43.72;40.67;;;;;;;16.94;100.00;101553.59;6213431;23;20024;-77
2022/10/23 07:15:07;;;;;;;45.05;41.28;;;;;;;16.81;100.00;101569.03;6214068;23;20083;-79
2022/10/23 07:17:34;;;;;;;42.45;39.75;;;;;;;17.14;100.00;101569.38;6214367;23;20032;-79
2022/10/23 07:20:01;;;;;;;44.78;41.45;;;;;;;17.06;100.00;101564.31;6214085;23;20078;-77
2022/10/23 07:22:28;;;;;;;43.55;40.75;;;;;;;16.63;100.00;101554.56;6215612;23;20021;-79
2022/10/23 07:24:56;;;;;;;43.72;40.63;;;;;;;16.60;100.00;101546.97;6215278;23;20024;-78
2022/10/23 07:27:25;;;;;;;44.10;41.60;;;;;;;17.14;100.00;101550.59;6215422;23;20024;-77
2022/10/23 07:29:52;;;;;;;43.65;40.65;;;;;;;17.01;100.00;101566.09;6215900;23;20031;-79
2022/10/23 07:32:22;;;;;;;43.20;39.40;;;;;;;17.30;100.00;101562.53;6214812;23;20017;-79
2022/10/23 07:34:49;;;;;;;43.20;39.90;;;;;;;17.45;100.00;101567.47;6214239;23;20501;-80
2022/10/23 07:37:16;;;;;;;43.60;40.53;;;;;;;17.43;100.00;101564.22;6215895;23;20237;-79
2022/10/23 07:39:43;;;;;;;43.90;41.13;;;;;;;17.75;100.00;101559.31;6216051;23;20326;-78
2022/10/23 07:42:10;;;;;;;42.10;39.40;;;;;;;17.66;100.00;101554.53;6215537;23;20396;-78
2022/10/23 07:44:37;;;;;;;44.30;41.20;;;;;;;17.53;100.00;101547.53;6214913;23;20017;-77
2022/10/23 07:47:04;;;;;;;42.63;40.13;;;;;;;17.53;100.00;101547.53;6215432;23;20016;-79
2022/10/23 07:49:34;;;;;;;41.60;38.80;;;;;;;17.39;100.00;101555.78;6215687;23;20024;-77
2022/10/23 07:52:02;;;;;;;40.92;38.33;;;;;;;17.48;100.00;101564.31;6215509;23;20503;-81
2022/10/23 07:54:28;;;;;;;42.22;39.45;;;;;;;18.59;100.00;101566.28;6214766;23;20017;-77
2022/10/23 07:56:55;;;;;;;42.45;39.65;;;;;;;18.82;100.00;101566.22;6215417;23;20323;-79
2022/10/23 07:59:22;;;;;;;42.13;39.38;;;;;;;18.31;100.00;101570.56;6215334;23;20322;-79
2022/10/23 08:01:49;;;;;;;41.38;38.65;;;;;;;17.39;100.00;101563.03;6214818;23;20401;-78
2022/10/23 08:04:16;;;;;;;44.65;41.03;;;;;;;17.75;100.00;101561.19;6215231;23;20027;-77
2022/10/23 08:06:44;;;;;;;42.20;39.55;;;;;;;17.36;100.00;101558.09;6214646;23;20020;-78
2022/10/23 08:09:11;;;;;;;44.13;40.80;;;;;;;18.36;100.00;101557.19;6215360;23;20028;-79
2022/10/23 08:11:41;;;;;;;41.25;38.75;;;;;;;19.24;100.00;101563.19;6215275;23;20090;-80
2022/10/23 08:14:08;;;;;;;43.10;40.00;;;;;;;18.78;100.00;101570.44;6215409;23;20111;-80
2022/10/23 08:16:37;;;;;;;40.92;38.53;;;;;;;19.22;100.00;101571.53;6215411;23;20020;-81
2022/10/23 08:19:06;;;;;;;43.35;40.25;;;;;;;19.61;100.00;101582.41;6215289;23;20048;-77
2022/10/23 08:21:33;;;;;;;42.25;39.35;;;;;;;18.90;100.00;101581.97;6215560;23;20484;-77
2022/10/23 08:24:01;;;;;;;41.95;39.55;;;;;;;19.85;100.00;101583.09;6215461;23;20029;-78
2022/10/23 08:26:29;;;;;;;43.10;40.42;;;;;;;19.92;100.00;101584.78;6215099;23;20396;-77
2022/10/23 08:28:57;;;;;;;40.47;38.08;;;;;;;19.74;100.00;101588.56;6215158;23;20052;-75
2022/10/23 08:31:24;;;;;;;42.00;39.25;;;;;;;18.94;100.00;101575.06;6215599;23;20024;-77
2022/10/23 08:33:51;;;;;;;42.08;39.30;;;;;;;19.06;100.00;101576.88;6214943;23;20029;-79
2022/10/23 08:36:21;;;;;;;42.60;39.70;;;;;;;20.04;100.00;101575.53;6214816;23;20029;-77
2022/10/23 08:38:48;;;;;;;42.42;39.80;;;;;;;19.13;100.00;101575.69;6215341;23;20016;-78
2022/10/23 08:41:25;;;;;;;41.97;39.13;;;;;;;18.96;100.00;101581.00;6214705;23;20028;-77
2022/10/23 08:43:57;;;;;;;42.63;39.72;;;;;;;20.06;100.00;101586.91;6214670;23;20469;-77
2022/10/23 08:46:29;;;;;;;40.42;37.83;;;;;;;19.87;100.00;101580.13;6214888;23;20029;-77
2022/10/23 08:49:05;;;;;;;42.88;40.28;;;;;;;20.40;100.00;101586.81;6215222;23;20087;-78
2022/10/23 08:51:35;;;;;;;42.58;39.72;;;;;;;20.67;100.00;101584.19;6215435;23;20098;-79
2022/10/23 08:54:08;;;;;;;43.30;40.42;;;;;;;20.98;100.00;101587.22;6215476;23;20025;-79
2022/10/23 08:56:40;;;;;;;41.08;38.47;;;;;;;20.32;100.00;101581.84;6214783;23;20016;-78
2022/10/23 08:59:13;;;;;;;;;;;;;;;20.10;100.00;101579.13;6215353;23;20021;-77
2022/10/23 09:01:42;;;;;;;42.47;39.55;;;;;;;21.92;100.00;101583.19;6214224;23;19916;-77
2022/10/23 09:04:13;;;;;;;45.63;42.85;;;;;;;20.83;85.15;101578.97;6215283;23;20389;-79
2022/10/23 09:06:47;;;;;;;41.67;39.00;;;;;;;21.05;100.00;101585.94;6215188;23;20098;-79
2022/10/23 09:09:50;;;;;;;43.60;40.70;;;;;;;20.80;100.00;101577.59;6215410;23;20024;-78
2022/10/23 09:12:22;;;;;;;41.60;39.13;;;;;;;20.74;99.70;101582.13;6214260;23;20091;-79
2022/10/23 09:15:08;;;;;;;42.22;39.47;;;;;;;21.92;100.00;101575.88;6215309;23;20094;-78
2022/10/23 09:17:37;;;;;;;41.65;38.95;;;;;;;21.72;95.99;101579.28;6214066;23;20421;-78
2022/10/23 09:20:14;;;;;;;41.20;38.55;;;;;;;21.06;84.48;101581.38;6216827;23;20020;-77
2022/10/23 09:22:42;;;;;;;45.25;40.80;;;;;;;21.04;100.00;101587.03;6216624;23;20024;-78
2022/10/23 09:25:10;;;;;;;42.63;39.97;;;;;;;19.74;89.57;101580.47;6216826;23;20021;-77
2022/10/23 09:27:45;;;;;;;42.13;39.25;;;;;;;20.52;100.00;101574.03;6216988;23;20441;-78
2022/10/23 09:30:13;;;;;;;43.03;40.20;;;;;;;22.20;100.00;101565.78;6216283;23;20071;-81
2022/10/23 09:32:42;;;;;;;42.85;38.83;;;;;;;22.69;86.43;101559.19;6216705;23;20082;-78
2022/10/23 09:35:21;;;;;;;42.63;39.83;;;;;;;20.63;83.64;101566.84;6216136;23;20345;-78
2022/10/23 09:37:51;;;;;;;41.65;39.05;;;;;;;21.40;96.84;101559.56;6216370;23;20401;-78
2022/10/23 09:40:25;;;;;;;44.78;39.83;;;;;;;20.88;90.40;101570.91;6215683;23;20576;-77
2022/10/23 09:42:56;;;;;;;40.90;37.35;;;;;;;21.63;99.43;101577.28;6215226;23;20020;-80
2022/10/23 09:45:26;;;;;;;42.00;38.93;;;;;;;21.86;90.54;101565.28;6215031;23;20016;-80
2022/10/23 09:48:06;;;;;;;41.65;38.63;;;;;;;21.18;96.02;101573.09;6215506;23;20397;-78
2022/10/23 09:50:33;;;;;;;41.97;39.08;;;;;;;21.40;89.63;101575.78;6215701;23;20020;-78
2022/10/23 09:53:00;;;;;;;41.92;39.10;;;;;;;21.87;87.49;101566.91;6215988;23;20515;-79
2022/10/23 09:55:27;;;;;;;41.28;38.65;;;;;;;21.73;90.68;101561.16;6216608;23;20114;-78
2022/10/23 09:57:56;;;;;;;44.97;40.85;;;;;;;21.47;87.13;101566.34;6216720;23;20036;-78
2022/10/23 10:00:28;;;;;;;44.50;41.28;;;;;;;21.76;92.64;101554.41;6215939;23;20017;-77
2022/10/23 10:02:57;;;;;;;41.95;39.35;;;;;;;22.07;89.77;101536.47;6216664;23;20409;-78
2022/10/23 10:05:26;;;;;;;41.53;38.92;;;;;;;21.84;87.28;101543.91;6215089;23;20025;-79
2022/10/23 10:07:59;;;;;;;42.97;40.38;;;;;;;22.41;84.86;101526.91;6216277;23;20016;-78
2022/10/23 10:10:35;;;;;;;43.67;40.88;;;;;;;23.15;78.70;101529.50;6216388;23;20017;-79
2022/10/23 10:13:17;;;;;;;45.38;41.90;;;;;;;22.15;83.23;101528.69;6215689;23;20090;-80
2022/10/23 10:15:52;;;;;;;41.10;38.42;;;;;;;20.96;66.61;101536.16;6215942;23;20095;-80
2022/10/23 10:18:24;;;;;;;42.08;39.28;;;;;;;23.45;76.96;101537.63;6210867;23;20098;-78
2022/10/23 10:21:10;;;;;;;42.10;39.40;;;;;;;22.60;82.13;101543.47;6211799;23;20029;-77
2022/10/23 10:23:45;;;;;;;42.95;40.35;;;;;;;22.04;69.83;101532.41;6212529;23;20457;-77
2022/10/23 10:26:26;;;;;;;43.17;40.67;;;;;;;22.51;78.36;101526.13;6211553;23;20050;-78
2022/10/23 10:29:13;;;;;;;43.33;40.88;;;;;;;22.01;68.70;101511.28;6211175;23;20028;-79
2022/10/23 10:31:51;;;;;;;43.40;40.92;;;;;;;20.50;71.77;101515.97;6211604;23;20094;-77
2022/10/23 10:34:25;;;;;;;44.33;41.53;;;;;;;21.95;71.62;101513.16;6211340;23;20196;-77
2022/10/23 10:36:55;;;;;;;43.60;40.92;;;;;;;22.25;73.56;101510.88;6211864;23;20512;-77
2022/10/23 10:39:36;;;;;;;43.30;40.35;;;;;;;22.63;61.09;101513.16;6212061;23;20025;-78
2022/10/23 10:42:16;;;;;;;44.25;41.55;;;;;;;22.98;78.95;101508.91;6214489;23;20454;-80
2022/10/23 10:45:00;;;;;;;43.75;41.00;;;;;;;24.05;65.39;101497.09;6215070;23;20021;-79
2022/10/23 10:47:34;;;;;;;42.88;40.30;;;;;;;22.13;67.71;101503.78;6215551;23;20040;-78
2022/10/23 10:50:11;;;;;;;42.22;39.60;;;;;;;24.07;64.54;101494.13;6216147;23;20035;-80
2022/10/23 10:52:46;;;;;;;43.83;41.15;;;;;;;22.92;68.45;101501.81;6215908;23;20339;-77
2022/10/23 10:55:17;;;;;;;42.13;39.72;;;;;;;23.11;60.79;101504.84;6215217;23;20453;-81
2022/10/23 10:57:48;;;;;;;42.15;39.50;;;;;;;22.82;62.92;101501.81;6215265;23;20083;-82
2022/10/23 11:00:20;;;;;;;41.22;38.90;;;;;;;22.81;64.50;101502.91;6215047;23;20075;-79
2022/10/23 11:02:48;;;;;;;41.28;38.53;;;;;;;23.70;65.95;101495.34;6216057;23;20031;-79
2022/10/23 11:05:25;;;;;;;41.90;39.35;;;;;;;24.40;56.34;101493.41;6215896;23;20078;-78
2022/10/23 11:07:58;;;;;;;42.35;39.85;;;;;;;23.73;60.48;101506.44;6215580;23;20087;-79
2022/10/23 11:10:27;;;;;;;43.00;40.20;;;;;;;23.91;55.03;101504.22;6215680;23;20016;-80
2022/10/23 11:12:56;;;;;;;41.85;39.45;;;;;;;24.82;53.26;101499.44;6215916;23;20035;-80
2022/10/23 11:15:27;;;;;;;43.10;40.60;;;;;;;23.70;59.11;101500.75;6215909;23;20090;-76
2022/10/23 11:17:58;;;;;;;41.40;38.75;;;;;;;24.83;55.80;101493.72;6216159;23;20322;-77